createdAt,value
2024-01-07T00:01:36.558Z,77.76
2024-01-07T00:04:04.805Z,77.79
2024-01-07T00:06:34.052Z,77.76
2024-01-07T00:09:02.072Z,77.81
2024-01-07T00:11:29.954Z,77.84
2024-01-07T00:13:58.990Z,77.83
2024-01-07T00:16:27.749Z,77.88
2024-01-07T00:18:56.616Z,77.89
2024-01-07T00:21:25.770Z,77.93
2024-01-07T00:23:54.194Z,78.06
2024-01-07T00:26:24.056Z,78.09
2024-01-07T00:28:52.083Z,78.16
2024-01-07T00:31:21.550Z,78.42
2024-01-07T00:33:49.861Z,78.63
2024-01-07T00:36:19.449Z,79.21
2024-01-07T00:38:47.592Z,79.18
2024-01-07T00:41:15.448Z,79.05
2024-01-07T00:43:43.362Z,78.90
2024-01-07T00:46:11.447Z,78.80
2024-01-07T00:48:39.733Z,78.67
2024-01-07T00:51:07.636Z,78.63
2024-01-07T00:53:35.481Z,78.54
2024-01-07T00:56:04.910Z,78.55
2024-01-07T00:58:37.214Z,78.59
2024-01-07T01:01:07.063Z,78.62
2024-01-07T01:03:35.332Z,78.69
2024-01-07T01:06:03.589Z,78.79
2024-01-07T01:08:31.750Z,79.00
2024-01-07T01:11:01.585Z,79.21
2024-01-07T01:13:30.747Z,79.32
2024-01-07T01:16:01.028Z,79.27
2024-01-07T01:18:29.109Z,79.38
2024-01-07T01:20:57.562Z,79.65
2024-01-07T01:23:25.512Z,79.54
2024-01-07T01:25:53.804Z,79.65
2024-01-07T01:28:23.033Z,79.67
2024-01-07T01:30:50.871Z,79.62
2024-01-07T01:33:20.329Z,79.75
2024-01-07T01:35:49.635Z,79.69
2024-01-07T01:38:18.126Z,79.88
2024-01-07T01:40:54.554Z,79.94
2024-01-07T01:43:26.960Z,79.85
2024-01-07T01:48:28.848Z,79.92
2024-01-07T01:50:58.257Z,80.12
2024-01-07T01:53:27.237Z,80.39
2024-01-07T01:55:59.209Z,80.41
2024-01-07T01:58:29.643Z,80.54
2024-01-07T02:00:58.208Z,80.57
2024-01-07T02:03:27.694Z,80.58
2024-01-07T02:06:00.062Z,80.43
2024-01-07T02:08:28.757Z,80.35
2024-01-07T02:10:57.640Z,80.29
2024-01-07T02:13:25.876Z,80.17
2024-01-07T02:15:54.263Z,80.16
2024-01-07T02:18:24.532Z,80.15
2024-01-07T02:20:52.463Z,80.12
2024-01-07T02:23:20.615Z,80.21
2024-01-07T02:25:48.565Z,80.23
2024-01-07T02:28:16.488Z,80.31
2024-01-07T02:30:46.579Z,80.37
2024-01-07T02:33:15.246Z,80.39
2024-01-07T02:35:43.731Z,80.43
2024-01-07T02:38:11.763Z,80.42
2024-01-07T02:40:40.265Z,80.56
2024-01-07T02:43:08.738Z,80.75
2024-01-07T02:45:36.644Z,80.79
2024-01-07T02:48:06.059Z,80.80
2024-01-07T02:50:34.211Z,81.09
2024-01-07T02:53:02.080Z,81.18
2024-01-07T02:55:29.999Z,81.30
2024-01-07T02:57:58.040Z,81.40
2024-01-07T03:00:26.039Z,81.38
2024-01-07T03:02:56.236Z,81.55
2024-01-07T03:05:26.506Z,81.58
2024-01-07T03:07:54.439Z,81.56
2024-01-07T03:10:22.420Z,81.69
2024-01-07T03:12:50.615Z,81.83
2024-01-07T03:15:19.186Z,81.71
2024-01-07T03:17:47.247Z,81.85
2024-01-07T03:20:17.636Z,81.96
2024-01-07T03:22:45.566Z,82.09
2024-01-07T03:25:21.140Z,82.28
2024-01-07T03:27:49.468Z,82.51
2024-01-07T03:30:17.412Z,82.83
2024-01-07T03:32:45.284Z,82.69
2024-01-07T03:35:13.282Z,83.07
2024-01-07T03:37:41.156Z,83.30
2024-01-07T03:40:13.011Z,83.55
2024-01-07T03:42:41.819Z,83.64
2024-01-07T03:45:10.034Z,84.09
2024-01-07T03:47:37.914Z,83.91
2024-01-07T03:50:07.226Z,83.79
2024-01-07T03:52:36.129Z,83.70
2024-01-07T03:55:04.721Z,83.74
2024-01-07T03:57:34.029Z,83.69
2024-01-07T04:00:01.980Z,83.52
2024-01-07T04:02:31.638Z,83.32
2024-01-07T04:04:59.581Z,83.21
2024-01-07T04:07:29.417Z,83.17
2024-01-07T04:10:00.399Z,82.95
2024-01-07T04:12:30.309Z,82.79
2024-01-07T04:14:58.302Z,82.66
2024-01-07T04:17:26.574Z,82.60
2024-01-07T04:19:54.683Z,82.54
2024-01-07T04:22:22.630Z,82.52
2024-01-07T04:24:51.154Z,82.44
2024-01-07T04:27:19.235Z,82.32
2024-01-07T04:29:47.401Z,82.10
2024-01-07T04:32:15.494Z,81.97
2024-01-07T04:34:43.493Z,81.89
2024-01-07T04:37:12.199Z,81.79
2024-01-07T04:39:40.418Z,81.66
2024-01-07T04:42:10.686Z,81.53
2024-01-07T04:44:37.909Z,81.55
2024-01-07T04:47:05.915Z,81.53
2024-01-07T04:49:34.091Z,81.48
2024-01-07T04:52:02.241Z,81.47
2024-01-07T04:54:30.125Z,81.38
2024-01-07T04:56:57.940Z,81.32
2024-01-07T04:59:26.001Z,81.23
2024-01-07T05:01:54.092Z,81.19
2024-01-07T05:04:24.098Z,81.02
2024-01-07T05:06:52.297Z,80.76
2024-01-07T05:09:20.303Z,80.60
2024-01-07T05:11:48.223Z,80.56
2024-01-07T05:14:16.201Z,80.32
2024-01-07T05:16:43.916Z,80.15
2024-01-07T05:19:11.949Z,79.96
2024-01-07T05:21:39.928Z,79.81
2024-01-07T05:24:07.891Z,79.69
2024-01-07T05:26:45.895Z,79.52
2024-01-07T05:29:14.018Z,79.45
2024-01-07T05:31:42.073Z,79.23
2024-01-07T05:34:10.249Z,78.88
2024-01-07T05:36:38.394Z,78.80
2024-01-07T05:39:07.281Z,78.80
2024-01-07T05:41:39.547Z,78.80
2024-01-07T05:44:09.152Z,78.70
2024-01-07T05:46:40.977Z,78.65
2024-01-07T05:49:09.806Z,78.68
2024-01-07T05:51:42.648Z,78.61
2024-01-07T05:54:10.717Z,78.49
2024-01-07T05:56:42.070Z,78.56
2024-01-07T05:59:10.146Z,78.60
2024-01-07T06:01:38.227Z,78.37
2024-01-07T06:04:06.176Z,78.25
2024-01-07T06:06:35.048Z,78.10
2024-01-07T06:09:03.164Z,78.01
2024-01-07T06:11:32.369Z,77.97
2024-01-07T06:14:00.257Z,77.92
2024-01-07T06:16:28.165Z,77.89
2024-01-07T06:18:56.349Z,78.02
2024-01-07T06:21:24.278Z,77.96
2024-01-07T06:23:52.102Z,77.89
2024-01-07T06:26:20.056Z,77.83
2024-01-07T06:28:47.834Z,77.76
2024-01-07T06:31:16.094Z,77.75
2024-01-07T06:33:44.346Z,77.78
2024-01-07T06:36:12.343Z,77.63
2024-01-07T06:38:40.329Z,77.54
2024-01-07T06:41:08.375Z,77.45
2024-01-07T06:43:36.390Z,77.50
2024-01-07T06:46:05.068Z,77.40
2024-01-07T06:48:32.948Z,77.52
2024-01-07T06:51:01.032Z,77.09
2024-01-07T06:53:29.129Z,77.13
2024-01-07T06:55:57.190Z,76.84
2024-01-07T06:58:25.280Z,76.74
2024-01-07T07:00:53.468Z,76.63
2024-01-07T07:03:21.342Z,76.52
2024-01-07T07:05:49.357Z,76.69
2024-01-07T07:08:17.935Z,76.64
2024-01-07T07:10:46.079Z,76.73
2024-01-07T07:13:14.888Z,76.64
2024-01-07T07:15:43.148Z,76.61
2024-01-07T07:18:11.632Z,76.54
2024-01-07T07:20:39.684Z,76.51
2024-01-07T07:23:07.829Z,76.65
2024-01-07T07:25:35.670Z,76.36
2024-01-07T07:28:04.015Z,75.40
2024-01-07T07:30:32.208Z,73.46
2024-01-07T07:33:00.676Z,71.78
2024-01-07T07:35:28.989Z,71.27
2024-01-07T07:37:57.963Z,69.30
2024-01-07T07:40:26.174Z,69.49
2024-01-07T07:42:54.144Z,67.05
2024-01-07T07:45:22.040Z,65.74
2024-01-07T07:47:49.903Z,65.81
2024-01-07T07:50:23.826Z,64.71
2024-01-07T07:52:52.111Z,62.75
2024-01-07T07:55:20.551Z,61.19
2024-01-07T07:57:48.580Z,61.25
2024-01-07T08:00:17.019Z,61.52
2024-01-07T08:02:45.085Z,60.67
2024-01-07T08:05:13.342Z,58.31
2024-01-07T08:07:42.172Z,57.02
2024-01-07T08:10:10.470Z,54.43
2024-01-07T08:12:38.554Z,54.90
2024-01-07T08:15:08.469Z,55.40
2024-01-07T08:17:36.519Z,56.60
2024-01-07T08:20:05.989Z,54.84
2024-01-07T08:22:34.289Z,54.39
2024-01-07T08:25:02.243Z,55.43
2024-01-07T08:27:30.599Z,55.61
2024-01-07T08:29:59.064Z,55.14
2024-01-07T08:32:27.246Z,54.32
2024-01-07T08:34:55.278Z,55.42
2024-01-07T08:37:23.353Z,55.58
2024-01-07T08:39:51.305Z,55.79
2024-01-07T08:42:20.353Z,55.63
2024-01-07T08:44:48.572Z,56.28
2024-01-07T08:47:16.497Z,57.08
2024-01-07T08:49:44.560Z,57.28
2024-01-07T08:52:12.640Z,57.50
2024-01-07T08:54:40.626Z,57.12
2024-01-07T08:57:08.749Z,57.82
2024-01-07T08:59:36.869Z,57.65
2024-01-07T09:02:05.366Z,57.76
2024-01-07T09:04:37.294Z,57.71
2024-01-07T09:07:09.446Z,57.86
2024-01-07T09:09:38.751Z,58.00
2024-01-07T09:12:07.844Z,57.48
2024-01-07T09:14:35.762Z,57.34
2024-01-07T09:17:04.096Z,55.36
2024-01-07T09:19:32.008Z,54.36
2024-01-07T09:22:00.182Z,54.84
2024-01-07T09:24:31.907Z,53.15
2024-01-07T09:27:01.886Z,54.14
2024-01-07T09:29:33.048Z,52.51
2024-01-07T09:32:02.310Z,53.09
2024-01-07T09:34:30.985Z,51.81
2024-01-07T09:36:58.928Z,51.40
2024-01-07T09:39:26.863Z,50.47
2024-01-07T09:41:54.918Z,49.85
2024-01-07T09:44:22.703Z,49.37
2024-01-07T09:46:52.580Z,49.30
2024-01-07T09:49:20.625Z,50.37
2024-01-07T09:51:53.886Z,49.46
2024-01-07T09:54:23.758Z,48.91
2024-01-07T09:56:56.856Z,49.16
2024-01-07T09:59:26.092Z,48.66
2024-01-07T10:01:56.575Z,48.83
2024-01-07T10:04:25.349Z,49.15
2024-01-07T10:06:54.614Z,49.16
2024-01-07T10:09:33.188Z,50.06
2024-01-07T10:12:01.614Z,49.16
2024-01-07T10:14:33.122Z,49.59
2024-01-07T10:17:01.702Z,49.50
2024-01-07T10:19:29.891Z,49.24
2024-01-07T10:22:03.415Z,49.35
2024-01-07T10:24:40.269Z,48.63
2024-01-07T10:27:11.313Z,48.43
2024-01-07T10:29:39.348Z,48.59
2024-01-07T10:32:07.737Z,48.10
2024-01-07T10:34:37.575Z,47.96
2024-01-07T10:37:06.802Z,47.44
2024-01-07T10:39:35.101Z,48.11
2024-01-07T10:42:03.192Z,48.00
2024-01-07T10:44:33.118Z,47.99
2024-01-07T10:47:05.943Z,47.90
2024-01-07T10:49:36.544Z,47.00
2024-01-07T10:52:11.976Z,48.17
2024-01-07T10:54:56.002Z,47.55
2024-01-07T10:57:50.574Z,47.14
2024-01-07T11:00:22.571Z,47.98
2024-01-07T11:03:19.870Z,47.80
2024-01-07T11:05:59.308Z,48.26
2024-01-07T11:08:49.193Z,48.25
2024-01-07T11:11:38.363Z,48.85
2024-01-07T11:14:07.959Z,48.81
2024-01-07T11:16:43.313Z,49.42
2024-01-07T11:19:16.211Z,49.82
2024-01-07T11:21:44.213Z,49.24
2024-01-07T11:24:23.041Z,49.79
2024-01-07T11:26:53.798Z,50.13
2024-01-07T11:29:21.756Z,50.84
2024-01-07T11:31:51.184Z,51.10
2024-01-07T11:34:46.193Z,52.16
2024-01-07T11:37:14.483Z,52.49
2024-01-07T11:39:46.765Z,52.01
2024-01-07T11:42:15.052Z,52.85
2024-01-07T11:44:54.243Z,52.64
2024-01-07T11:47:24.246Z,52.76
2024-01-07T11:49:54.369Z,52.92
2024-01-07T11:52:22.625Z,52.95
2024-01-07T11:54:57.024Z,53.49
2024-01-07T11:57:25.886Z,54.00
2024-01-07T11:59:53.865Z,54.74
2024-01-07T12:02:21.945Z,55.50
2024-01-07T12:04:50.429Z,55.06
2024-01-07T12:07:18.492Z,55.44
2024-01-07T12:09:46.654Z,55.87
2024-01-07T12:12:14.591Z,55.96
2024-01-07T12:14:42.499Z,55.95
2024-01-07T12:17:13.672Z,56.53
2024-01-07T12:19:42.981Z,56.55
2024-01-07T12:22:11.049Z,56.70
2024-01-07T12:24:39.116Z,56.91
2024-01-07T12:27:07.899Z,56.87
2024-01-07T12:29:36.156Z,56.96
2024-01-07T12:32:06.345Z,56.64
2024-01-07T12:34:34.643Z,56.96
2024-01-07T12:37:03.189Z,57.10
2024-01-07T12:39:31.281Z,57.31
2024-01-07T12:41:59.336Z,57.40
2024-01-07T12:44:30.366Z,57.47
2024-01-07T12:46:58.231Z,57.18
2024-01-07T12:49:26.446Z,57.35
2024-01-07T12:51:54.598Z,57.24
2024-01-07T12:54:24.022Z,57.42
2024-01-07T12:56:52.646Z,57.94
2024-01-07T12:59:20.692Z,58.03
2024-01-07T13:01:50.797Z,58.04
2024-01-07T13:04:19.997Z,58.32
2024-01-07T13:06:48.077Z,58.78
2024-01-07T13:09:16.173Z,58.65
2024-01-07T13:11:43.979Z,58.79
2024-01-07T13:14:12.117Z,59.25
2024-01-07T13:16:41.031Z,59.63
2024-01-07T13:19:11.021Z,59.92
2024-01-07T13:21:44.185Z,60.53
2024-01-07T13:24:14.120Z,60.91
2024-01-07T13:26:42.994Z,61.18
2024-01-07T13:29:13.132Z,61.82
2024-01-07T13:31:42.125Z,62.18
2024-01-07T13:34:11.029Z,62.45
2024-01-07T13:36:38.933Z,62.90
2024-01-07T13:39:08.535Z,63.83
2024-01-07T13:41:37.871Z,64.16
2024-01-07T13:44:07.062Z,64.81
2024-01-07T13:46:35.075Z,65.29
2024-01-07T13:49:03.105Z,66.18
2024-01-07T13:51:31.233Z,66.59
2024-01-07T13:53:59.229Z,66.84
2024-01-07T13:56:29.325Z,68.61
2024-01-07T13:58:57.267Z,69.91
2024-01-07T14:01:25.347Z,71.59
2024-01-07T14:03:53.706Z,72.51
2024-01-07T14:06:22.271Z,72.83
2024-01-07T14:08:49.990Z,73.86
2024-01-07T14:11:18.354Z,74.98
2024-01-07T14:13:47.132Z,75.54
2024-01-07T14:16:22.509Z,75.02
2024-01-07T14:18:52.689Z,76.91
2024-01-07T14:21:20.643Z,76.27
2024-01-07T14:23:48.959Z,76.59
2024-01-07T14:26:16.882Z,77.20
2024-01-07T14:28:45.072Z,77.61
2024-01-07T14:31:15.942Z,77.48
2024-01-07T14:33:48.947Z,78.10
2024-01-07T14:36:17.285Z,78.36
2024-01-07T14:38:48.843Z,79.27
2024-01-07T14:41:17.152Z,79.43
2024-01-07T14:43:45.378Z,79.26
2024-01-07T14:46:13.402Z,80.14
2024-01-07T14:48:41.956Z,80.26
2024-01-07T14:51:10.419Z,81.33
2024-01-07T14:53:38.390Z,81.57
2024-01-07T14:56:06.997Z,82.48
2024-01-07T14:58:35.295Z,82.92
2024-01-07T15:01:03.685Z,83.19
2024-01-07T15:03:31.873Z,83.52
2024-01-07T15:06:00.490Z,83.22
2024-01-07T15:08:28.676Z,83.57
2024-01-07T15:10:56.486Z,84.38
2024-01-07T15:13:28.143Z,84.36
2024-01-07T15:15:58.985Z,84.43
2024-01-07T15:18:32.795Z,84.76
2024-01-07T15:21:01.430Z,85.20
2024-01-07T15:23:31.375Z,85.11
2024-01-07T15:26:00.814Z,84.00
2024-01-07T15:28:29.783Z,83.97
2024-01-07T15:30:58.917Z,84.00
2024-01-07T15:33:27.243Z,84.81
2024-01-07T15:35:55.321Z,84.40
2024-01-07T15:38:23.299Z,84.19
2024-01-07T15:40:51.153Z,84.97
2024-01-07T15:43:20.345Z,84.70
2024-01-07T15:45:49.181Z,84.29
2024-01-07T15:48:17.381Z,84.67
2024-01-07T15:50:45.281Z,85.30
2024-01-07T15:53:15.587Z,85.50
2024-01-07T15:55:43.036Z,85.95
2024-01-07T15:58:10.887Z,86.11
2024-01-07T16:00:38.907Z,85.72
2024-01-07T16:03:07.268Z,85.53
2024-01-07T16:05:35.699Z,85.80
2024-01-07T16:08:07.984Z,85.86
2024-01-07T16:10:37.605Z,86.65
2024-01-07T16:13:05.463Z,87.23
2024-01-07T16:15:33.579Z,86.55
2024-01-07T16:18:01.703Z,86.65
2024-01-07T16:20:29.636Z,87.26
2024-01-07T16:22:57.984Z,86.86
2024-01-07T16:25:25.982Z,86.67
2024-01-07T16:27:55.397Z,86.87
2024-01-07T16:30:23.539Z,86.51
2024-01-07T16:32:51.754Z,86.82
2024-01-07T16:35:20.151Z,87.25
2024-01-07T16:37:47.992Z,86.97
2024-01-07T16:40:18.295Z,87.04
2024-01-07T16:42:48.000Z,87.08
2024-01-07T16:45:16.041Z,87.24
2024-01-07T16:47:43.995Z,87.93
2024-01-07T16:50:21.761Z,87.36
2024-01-07T16:52:42.916Z,87.76
2024-01-07T16:55:11.622Z,87.53
2024-01-07T16:57:39.823Z,87.32
2024-01-07T17:00:10.651Z,87.52
2024-01-07T17:02:38.758Z,88.33
2024-01-07T17:05:09.705Z,87.67
2024-01-07T17:07:40.680Z,87.88
2024-01-07T17:10:09.687Z,87.71
2024-01-07T17:12:37.512Z,87.64
2024-01-07T17:15:05.993Z,87.83
2024-01-07T17:17:34.025Z,87.55
2024-01-07T17:20:01.996Z,87.81
2024-01-07T17:22:30.060Z,88.70
2024-01-07T17:24:58.157Z,88.52
2024-01-07T17:27:26.056Z,88.02
2024-01-07T17:29:54.128Z,88.25
2024-01-07T17:32:23.206Z,88.09
2024-01-07T17:34:54.454Z,88.48
2024-01-07T17:37:24.662Z,88.45
2024-01-07T17:39:52.940Z,88.31
2024-01-07T17:42:23.170Z,88.24
2024-01-07T17:44:52.914Z,88.20
2024-01-07T17:47:23.184Z,88.16
2024-01-07T17:49:52.432Z,88.13
2024-01-07T17:52:20.724Z,87.87
2024-01-07T17:54:56.192Z,87.80
2024-01-07T17:57:24.893Z,87.77
2024-01-07T17:59:52.927Z,87.63
2024-01-07T18:02:21.282Z,87.49
2024-01-07T18:04:50.915Z,87.33
2024-01-07T18:07:19.744Z,87.19
2024-01-07T18:09:47.977Z,87.06
2024-01-07T18:12:17.292Z,87.02
2024-01-07T18:14:45.624Z,86.85
2024-01-07T18:17:13.856Z,86.82
2024-01-07T18:19:42.387Z,86.88
2024-01-07T18:22:13.634Z,86.86
2024-01-07T18:24:42.346Z,86.76
2024-01-07T18:27:10.396Z,86.62
2024-01-07T18:29:39.377Z,86.63
2024-01-07T18:32:08.485Z,86.65
2024-01-07T18:34:36.916Z,86.70
2024-01-07T18:37:05.106Z,85.04
2024-01-07T18:39:33.084Z,84.20
2024-01-07T18:42:01.653Z,82.63
2024-01-07T18:44:29.756Z,80.32
2024-01-07T18:46:58.074Z,77.62
2024-01-07T18:49:26.263Z,78.54
2024-01-07T18:51:54.543Z,77.59
2024-01-07T18:54:22.620Z,77.37
2024-01-07T18:56:50.772Z,76.03
2024-01-07T18:59:19.887Z,77.57
2024-01-07T19:01:58.647Z,78.27
2024-01-07T19:04:43.874Z,79.06
2024-01-07T19:07:14.116Z,79.57
2024-01-07T19:09:42.028Z,79.82
2024-01-07T19:12:11.879Z,80.06
2024-01-07T19:14:42.636Z,79.92
2024-01-07T19:17:10.745Z,79.53
2024-01-07T19:19:39.261Z,79.76
2024-01-07T19:22:11.676Z,80.04
2024-01-07T19:24:39.618Z,80.10
2024-01-07T19:27:09.542Z,80.00
2024-01-07T19:29:41.476Z,79.98
2024-01-07T19:32:09.743Z,79.94
2024-01-07T19:34:40.066Z,79.76
2024-01-07T19:37:14.866Z,79.85
2024-01-07T19:39:43.194Z,79.88
2024-01-07T19:42:13.209Z,79.54
2024-01-07T19:44:45.690Z,79.34
2024-01-07T19:47:13.880Z,78.83
2024-01-07T19:49:41.833Z,78.54
2024-01-07T19:52:09.853Z,77.57
2024-01-07T19:54:39.859Z,74.46
2024-01-07T19:57:08.066Z,72.04
2024-01-07T19:59:39.177Z,71.58
2024-01-07T20:02:07.723Z,70.61
2024-01-07T20:04:35.822Z,70.05
2024-01-07T20:07:05.107Z,69.44
2024-01-07T20:09:33.192Z,69.28
2024-01-07T20:12:01.805Z,69.60
2024-01-07T20:14:31.620Z,69.67
2024-01-07T20:16:59.660Z,68.67
2024-01-07T20:19:27.707Z,69.36
2024-01-07T20:21:55.793Z,69.83
2024-01-07T20:24:24.384Z,69.01
2024-01-07T20:26:52.423Z,69.41
2024-01-07T20:29:22.387Z,69.45
2024-01-07T20:31:50.576Z,70.26
2024-01-07T20:34:20.410Z,69.77
2024-01-07T20:36:51.776Z,69.80
2024-01-07T20:39:21.271Z,70.10
2024-01-07T20:41:50.195Z,70.33
2024-01-07T20:44:18.344Z,70.47
2024-01-07T20:46:46.308Z,70.29
2024-01-07T20:49:14.564Z,69.35
2024-01-07T20:51:42.635Z,70.28
2024-01-07T20:54:10.696Z,70.22
2024-01-07T20:56:42.629Z,70.54
2024-01-07T20:59:08.871Z,69.58
2024-01-07T21:01:37.266Z,69.99
2024-01-07T21:04:06.981Z,69.75
2024-01-07T21:06:35.112Z,69.35
2024-01-07T21:09:03.332Z,69.09
2024-01-07T21:11:31.481Z,69.69
2024-01-07T21:13:59.678Z,69.37
2024-01-07T21:16:27.648Z,70.02
2024-01-07T21:18:55.848Z,70.08
2024-01-07T21:21:25.971Z,69.75
2024-01-07T21:23:54.183Z,69.70
2024-01-07T21:26:24.493Z,68.77
2024-01-07T21:28:52.535Z,68.66
2024-01-07T21:31:21.108Z,68.97
2024-01-07T21:33:50.518Z,68.81
2024-01-07T21:36:18.580Z,68.62
2024-01-07T21:38:48.212Z,67.87
2024-01-07T21:41:16.136Z,68.67
2024-01-07T21:43:44.916Z,68.99
2024-01-07T21:46:19.347Z,68.51
2024-01-07T21:48:48.798Z,68.35
2024-01-07T21:51:19.130Z,68.44
2024-01-07T21:53:47.099Z,68.10
2024-01-07T21:56:15.076Z,67.87
2024-01-07T21:58:44.404Z,67.95
2024-01-07T22:01:14.248Z,68.33
2024-01-07T22:03:42.214Z,68.38
2024-01-07T22:06:11.974Z,67.40
2024-01-07T22:08:41.335Z,68.01
2024-01-07T22:11:15.899Z,68.15
2024-01-07T22:13:45.761Z,67.86
2024-01-07T22:16:14.382Z,67.51
2024-01-07T22:18:43.051Z,68.01
2024-01-07T22:21:20.054Z,68.23
2024-01-07T22:23:49.900Z,68.33
2024-01-07T22:26:24.934Z,68.28
2024-01-07T22:28:52.761Z,67.69
2024-01-07T22:31:23.035Z,68.33
2024-01-07T22:33:51.098Z,67.81
2024-01-07T22:36:19.431Z,68.23
2024-01-07T22:38:47.442Z,68.10
2024-01-07T22:41:15.398Z,68.57
2024-01-07T22:44:03.857Z,68.80
2024-01-07T22:46:32.736Z,68.09
2024-01-07T22:49:00.804Z,67.64
2024-01-07T22:51:30.553Z,67.55
2024-01-07T22:53:58.428Z,67.30
2024-01-07T22:56:28.520Z,67.01
2024-01-07T22:58:56.647Z,67.27
2024-01-07T23:01:32.759Z,67.80
2024-01-07T23:04:00.942Z,67.00
2024-01-07T23:06:28.997Z,67.35
2024-01-07T23:08:57.201Z,67.12
2024-01-07T23:11:27.046Z,67.16
2024-01-07T23:13:55.431Z,66.26
2024-01-07T23:16:23.421Z,66.37
2024-01-07T23:18:51.436Z,66.58
2024-01-07T23:21:20.708Z,66.97
2024-01-07T23:23:48.665Z,66.59
2024-01-07T23:26:16.801Z,66.63
2024-01-07T23:28:45.274Z,67.22
2024-01-07T23:31:13.828Z,67.16
2024-01-07T23:33:43.048Z,67.04
2024-01-07T23:36:11.766Z,66.72
2024-01-07T23:38:39.822Z,66.79
2024-01-07T23:41:07.704Z,66.50
2024-01-07T23:43:35.863Z,66.75
2024-01-07T23:46:06.255Z,66.55
2024-01-07T23:48:37.106Z,65.84
2024-01-07T23:51:05.660Z,65.99
2024-01-07T23:53:33.642Z,65.89
2024-01-07T23:56:01.753Z,65.15
2024-01-07T23:58:30.112Z,65.87
